createdAt,value
2022-11-06T00:00:21.149Z,87.96
2022-11-06T00:03:03.233Z,88.29
2022-11-06T00:05:53.263Z,87.88
2022-11-06T00:08:33.674Z,87.66
2022-11-06T00:11:12.061Z,88.37
2022-11-06T00:13:45.459Z,88.54
2022-11-06T00:16:17.788Z,88.25
2022-11-06T00:18:50.745Z,88.34
2022-11-06T00:21:26.622Z,88.42
2022-11-06T00:24:01.083Z,88.22
2022-11-06T00:26:34.723Z,87.84
2022-11-06T00:29:07.801Z,87.41
2022-11-06T00:31:40.443Z,87.45
2022-11-06T00:34:13.301Z,87.61
2022-11-06T00:36:45.520Z,87.81
2022-11-06T00:39:17.989Z,87.43
2022-11-06T00:41:50.189Z,87.57
2022-11-06T00:44:22.974Z,87.91
2022-11-06T00:46:55.103Z,87.81
2022-11-06T00:49:28.666Z,87.58
2022-11-06T00:52:01.327Z,87.53
2022-11-06T00:54:33.744Z,87.48
2022-11-06T00:57:07.120Z,87.69
2022-11-06T00:59:39.285Z,87.05
2022-11-06T01:02:11.699Z,86.69
2022-11-06T01:04:44.362Z,86.59
2022-11-06T01:07:16.633Z,87.04
2022-11-06T01:09:48.943Z,86.92
2022-11-06T01:12:21.159Z,87.30
2022-11-06T01:14:53.503Z,87.78
2022-11-06T01:17:26.089Z,87.33
2022-11-06T01:19:58.241Z,86.90
2022-11-06T01:22:30.436Z,86.83
2022-11-06T01:25:03.043Z,86.67
2022-11-06T01:27:35.491Z,87.09
2022-11-06T01:30:09.896Z,87.05
2022-11-06T01:32:42.182Z,86.86
2022-11-06T01:35:14.373Z,86.57
2022-11-06T01:37:47.002Z,86.58
2022-11-06T01:40:19.345Z,86.81
2022-11-06T01:42:51.553Z,87.15
2022-11-06T01:45:32.687Z,86.78
2022-11-06T01:48:05.433Z,86.81
2022-11-06T01:50:38.361Z,86.83
2022-11-06T01:53:10.915Z,86.74
2022-11-06T01:55:46.567Z,86.97
2022-11-06T01:58:21.885Z,86.88
2022-11-06T02:00:54.184Z,87.07
2022-11-06T02:03:26.916Z,86.56
2022-11-06T02:06:00.385Z,86.50
2022-11-06T02:08:33.168Z,86.14
2022-11-06T02:11:06.002Z,85.89
2022-11-06T02:13:44.776Z,85.93
2022-11-06T02:16:23.164Z,86.11
2022-11-06T02:19:13.867Z,85.90
2022-11-06T02:22:12.224Z,86.11
2022-11-06T02:25:09.890Z,85.97
2022-11-06T02:27:45.529Z,86.28
2022-11-06T02:30:19.554Z,86.22
2022-11-06T02:32:59.220Z,85.61
2022-11-06T02:35:36.175Z,85.54
2022-11-06T02:38:12.589Z,85.61
2022-11-06T02:40:50.496Z,85.61
2022-11-06T02:43:25.611Z,85.48
2022-11-06T02:46:03.486Z,85.55
2022-11-06T02:48:42.514Z,85.71
2022-11-06T02:51:18.878Z,85.73
2022-11-06T02:53:51.742Z,86.10
2022-11-06T02:56:28.521Z,85.97
2022-11-06T02:59:04.551Z,86.11
2022-11-06T03:01:40.418Z,85.44
2022-11-06T03:04:17.798Z,85.04
2022-11-06T03:06:55.600Z,85.23
2022-11-06T03:09:33.261Z,85.23
2022-11-06T03:12:18.032Z,85.25
2022-11-06T03:14:58.798Z,85.45
2022-11-06T03:17:44.102Z,85.95
2022-11-06T03:20:19.320Z,86.11
2022-11-06T03:22:58.275Z,85.84
2022-11-06T03:25:35.968Z,86.15
2022-11-06T03:28:13.459Z,86.24
2022-11-06T03:30:51.489Z,86.16
2022-11-06T03:33:31.596Z,85.66
2022-11-06T03:36:10.151Z,85.41
2022-11-06T03:38:46.258Z,85.16
2022-11-06T03:41:23.976Z,85.14
2022-11-06T03:44:00.802Z,85.23
2022-11-06T03:46:34.300Z,85.22
2022-11-06T03:49:10.723Z,85.23
2022-11-06T03:51:46.520Z,85.42
2022-11-06T03:54:23.373Z,85.67
2022-11-06T03:57:01.854Z,85.82
2022-11-06T03:59:39.338Z,85.74
2022-11-06T04:02:14.381Z,85.86
2022-11-06T04:04:52.838Z,85.75
2022-11-06T04:07:29.508Z,85.52
2022-11-06T04:10:22.203Z,85.44
2022-11-06T04:13:14.370Z,85.23
2022-11-06T04:15:53.251Z,85.33
2022-11-06T04:18:25.417Z,85.25
2022-11-06T04:21:23.112Z,85.53
2022-11-06T04:24:26.941Z,85.89
2022-11-06T04:27:12.729Z,85.91
2022-11-06T04:30:00.107Z,86.02
2022-11-06T04:32:41.877Z,86.05
2022-11-06T04:35:22.615Z,85.67
2022-11-06T04:38:02.522Z,85.34
2022-11-06T04:40:46.541Z,85.15
2022-11-06T04:43:31.482Z,85.05
2022-11-06T04:46:07.600Z,85.28
2022-11-06T04:48:40.993Z,85.21
2022-11-06T04:51:15.102Z,85.29
2022-11-06T04:53:50.469Z,85.48
2022-11-06T04:56:29.419Z,85.58
2022-11-06T04:59:02.665Z,85.63
2022-11-06T05:01:35.322Z,85.88
2022-11-06T05:04:07.973Z,85.62
2022-11-06T05:06:40.201Z,85.11
2022-11-06T05:09:12.413Z,84.54
2022-11-06T05:11:44.556Z,84.48
2022-11-06T05:14:16.725Z,84.33
2022-11-06T05:16:48.912Z,84.26
2022-11-06T05:19:21.065Z,84.41
2022-11-06T05:22:11.047Z,84.50
2022-11-06T05:24:43.191Z,84.87
2022-11-06T05:27:15.448Z,85.11
2022-11-06T05:29:47.706Z,85.12
2022-11-06T05:32:19.875Z,85.25
2022-11-06T05:34:52.048Z,85.27
2022-11-06T05:37:24.850Z,84.89
2022-11-06T05:39:57.070Z,84.41
2022-11-06T05:42:29.365Z,84.27
2022-11-06T05:45:01.516Z,84.17
2022-11-06T05:47:34.031Z,84.33
2022-11-06T05:50:07.022Z,84.42
2022-11-06T05:52:39.807Z,84.79
2022-11-06T05:55:15.055Z,84.90
2022-11-06T05:57:47.572Z,84.87
2022-11-06T06:00:21.546Z,84.46
2022-11-06T06:02:53.862Z,84.41
2022-11-06T06:05:26.028Z,84.33
2022-11-06T06:07:58.242Z,84.47
2022-11-06T06:10:30.413Z,84.42
2022-11-06T06:13:02.700Z,84.38
2022-11-06T06:15:35.082Z,84.16
2022-11-06T06:18:08.373Z,84.46
2022-11-06T06:20:40.951Z,84.66
2022-11-06T06:23:13.504Z,84.61
2022-11-06T06:25:45.800Z,84.99
2022-11-06T06:28:17.974Z,85.17
2022-11-06T06:30:50.291Z,85.49
2022-11-06T06:33:22.509Z,85.64
2022-11-06T06:35:55.142Z,85.83
2022-11-06T06:38:27.406Z,85.94
2022-11-06T06:41:03.926Z,86.09
2022-11-06T06:43:37.103Z,86.10
2022-11-06T06:46:09.802Z,85.70
2022-11-06T06:48:41.906Z,85.56
2022-11-06T06:51:14.071Z,85.67
2022-11-06T06:53:46.347Z,85.85
2022-11-06T06:56:18.554Z,85.78
2022-11-06T06:58:50.926Z,85.77
2022-11-06T07:01:23.705Z,86.03
2022-11-06T07:04:01.345Z,86.32
2022-11-06T07:06:36.107Z,86.60
2022-11-06T07:09:08.557Z,86.79
2022-11-06T07:11:40.850Z,86.77
2022-11-06T07:14:13.507Z,87.01
2022-11-06T07:16:51.078Z,86.34
2022-11-06T07:19:25.781Z,86.28
2022-11-06T07:21:58.098Z,86.33
2022-11-06T07:24:30.423Z,85.93
2022-11-06T07:27:02.618Z,86.10
2022-11-06T07:29:34.914Z,86.55
2022-11-06T07:32:11.055Z,86.60
2022-11-06T07:34:43.430Z,87.14
2022-11-06T07:37:15.590Z,87.53
2022-11-06T07:39:47.810Z,87.74
2022-11-06T07:42:19.991Z,87.96
2022-11-06T07:45:02.365Z,87.99
2022-11-06T07:47:34.708Z,87.76
2022-11-06T07:50:08.125Z,87.80
2022-11-06T07:52:40.273Z,88.12
2022-11-06T07:55:13.108Z,88.49
2022-11-06T07:57:45.278Z,88.75
2022-11-06T08:00:18.371Z,88.59
2022-11-06T08:02:53.983Z,88.91
2022-11-06T08:05:26.388Z,89.04
2022-11-06T08:08:00.477Z,89.43
2022-11-06T08:10:32.645Z,89.67
2022-11-06T08:13:04.840Z,89.54
2022-11-06T08:15:38.239Z,89.29
2022-11-06T08:18:12.615Z,88.85
2022-11-06T08:20:45.077Z,88.93
2022-11-06T08:23:17.302Z,89.13
2022-11-06T08:25:49.437Z,89.75
2022-11-06T08:28:21.715Z,89.25
2022-11-06T08:30:54.384Z,88.88
2022-11-06T08:33:27.274Z,89.10
2022-11-06T08:36:01.702Z,88.81
2022-11-06T08:38:34.042Z,89.05
2022-11-06T08:41:09.960Z,89.48
2022-11-06T08:43:42.564Z,89.71
2022-11-06T08:46:15.449Z,89.00
2022-11-06T08:48:47.558Z,88.58
2022-11-06T08:51:20.061Z,88.18
2022-11-06T08:53:52.409Z,89.06
2022-11-06T08:56:24.805Z,89.51
2022-11-06T08:58:57.208Z,88.99
2022-11-06T09:01:29.580Z,89.40
2022-11-06T09:04:01.881Z,90.17
2022-11-06T09:06:34.194Z,90.13
2022-11-06T09:09:06.672Z,89.32
2022-11-06T09:11:38.813Z,87.95
2022-11-06T09:14:11.062Z,88.61
2022-11-06T09:16:43.314Z,89.07
2022-11-06T09:19:15.500Z,89.56
2022-11-06T09:21:53.443Z,88.63
2022-11-06T09:24:49.744Z,87.34
2022-11-06T09:27:19.296Z,86.77
2022-11-06T09:29:51.538Z,86.46
2022-11-06T09:32:24.195Z,88.03
2022-11-06T09:34:56.411Z,87.87
2022-11-06T09:37:28.673Z,88.56
2022-11-06T09:40:06.095Z,85.80
2022-11-06T09:42:50.352Z,87.25
2022-11-06T09:45:24.721Z,86.48
2022-11-06T09:48:01.997Z,87.20
2022-11-06T09:50:38.890Z,85.28
2022-11-06T09:53:18.498Z,85.42
2022-11-06T09:55:52.397Z,84.43
2022-11-06T09:58:30.350Z,86.11
2022-11-06T10:01:08.007Z,86.47
2022-11-06T10:03:45.192Z,85.42
2022-11-06T10:06:24.947Z,83.86
2022-11-06T10:09:01.115Z,82.28
2022-11-06T10:11:51.662Z,83.68
2022-11-06T10:14:37.520Z,81.75
2022-11-06T10:17:18.776Z,82.86
2022-11-06T10:19:57.396Z,82.43
2022-11-06T10:22:37.026Z,81.40
2022-11-06T10:25:22.143Z,81.86
2022-11-06T10:28:02.434Z,81.78
2022-11-06T10:30:46.389Z,79.50
2022-11-06T10:33:35.762Z,81.28
2022-11-06T10:36:11.075Z,81.49
2022-11-06T10:38:47.863Z,81.47
2022-11-06T10:41:23.938Z,79.27
2022-11-06T10:44:00.617Z,81.03
2022-11-06T10:46:38.135Z,80.63
2022-11-06T10:49:21.693Z,79.82
2022-11-06T10:52:06.277Z,80.95
2022-11-06T10:54:56.981Z,82.04
2022-11-06T10:57:38.468Z,78.25
2022-11-06T11:00:15.762Z,79.86
2022-11-06T11:02:50.764Z,78.60
2022-11-06T11:05:22.089Z,78.01
2022-11-06T11:07:55.407Z,76.03
2022-11-06T11:10:33.444Z,77.50
2022-11-06T11:13:08.984Z,78.08
2022-11-06T11:15:47.787Z,76.79
2022-11-06T11:18:24.235Z,77.67
2022-11-06T11:21:09.386Z,75.91
2022-11-06T11:23:40.264Z,76.01
2022-11-06T11:26:27.710Z,76.47
2022-11-06T11:29:02.386Z,76.48
2022-11-06T11:31:36.384Z,76.68
2022-11-06T11:34:18.530Z,76.00
2022-11-06T11:36:58.265Z,76.18
2022-11-06T11:39:33.978Z,75.75
2022-11-06T11:42:27.006Z,75.30
2022-11-06T11:45:21.152Z,75.92
2022-11-06T11:48:09.977Z,74.57
2022-11-06T11:50:42.299Z,74.74
2022-11-06T11:53:20.947Z,75.16
2022-11-06T11:55:54.418Z,73.26
2022-11-06T11:58:30.457Z,74.71
2022-11-06T12:01:07.663Z,73.89
2022-11-06T12:03:44.928Z,74.27
2022-11-06T12:06:19.604Z,75.21
2022-11-06T12:08:55.687Z,74.71
2022-11-06T12:11:30.905Z,73.34
2022-11-06T12:14:36.403Z,71.80
2022-11-06T12:17:23.340Z,73.28
2022-11-06T12:19:59.332Z,71.73
2022-11-06T12:22:36.274Z,69.53
2022-11-06T12:25:16.366Z,72.10
2022-11-06T12:27:52.544Z,70.21
2022-11-06T12:30:25.027Z,69.17
2022-11-06T12:33:05.896Z,72.02
2022-11-06T12:35:42.617Z,71.40
2022-11-06T12:38:28.457Z,69.77
2022-11-06T12:41:06.206Z,71.12
2022-11-06T12:43:43.906Z,69.61
2022-11-06T12:46:37.755Z,69.81
2022-11-06T12:49:42.622Z,70.61
2022-11-06T12:52:30.146Z,72.14
2022-11-06T12:55:16.698Z,71.07
2022-11-06T12:58:05.686Z,71.80
2022-11-06T13:00:48.230Z,70.38
2022-11-06T13:03:42.933Z,72.64
2022-11-06T13:06:20.568Z,71.51
2022-11-06T13:09:02.078Z,71.53
2022-11-06T13:11:45.689Z,72.07
2022-11-06T13:14:27.256Z,72.39
2022-11-06T13:17:07.384Z,71.47
2022-11-06T13:19:48.461Z,71.78
2022-11-06T13:22:30.816Z,70.35
2022-11-06T13:25:15.324Z,72.19
2022-11-06T13:27:53.046Z,73.31
2022-11-06T13:30:26.116Z,72.68
2022-11-06T13:33:06.372Z,73.30
2022-11-06T13:35:43.249Z,72.86
2022-11-06T13:38:19.928Z,72.86
2022-11-06T13:41:02.183Z,72.95
2022-11-06T13:43:38.836Z,72.15
2022-11-06T13:46:22.425Z,73.22
2022-11-06T13:49:03.542Z,72.52
2022-11-06T13:51:44.634Z,72.52
2022-11-06T13:54:25.920Z,72.53
2022-11-06T13:57:40.947Z,72.77
2022-11-06T14:00:22.437Z,72.60
2022-11-06T14:03:28.267Z,72.83
2022-11-06T14:06:01.645Z,72.99
2022-11-06T14:08:41.848Z,73.26
2022-11-06T14:11:17.722Z,72.85
2022-11-06T14:14:03.000Z,73.05
2022-11-06T14:16:38.351Z,72.68
2022-11-06T14:19:15.739Z,72.96
2022-11-06T14:21:51.282Z,73.05
2022-11-06T14:24:40.961Z,73.19
2022-11-06T14:27:56.059Z,72.54
2022-11-06T14:31:11.108Z,72.81
2022-11-06T14:34:01.200Z,72.69
2022-11-06T14:36:36.405Z,72.66
2022-11-06T14:39:14.574Z,73.09
2022-11-06T14:42:01.282Z,72.96
2022-11-06T14:44:50.807Z,72.92
2022-11-06T14:47:32.265Z,73.06
2022-11-06T14:50:24.402Z,73.41
2022-11-06T14:53:01.613Z,73.30
2022-11-06T14:55:39.695Z,73.18
2022-11-06T14:58:23.870Z,73.25
2022-11-06T15:00:58.146Z,72.92
2022-11-06T15:03:35.787Z,72.87
2022-11-06T15:06:36.164Z,72.80
2022-11-06T15:09:12.942Z,73.15
2022-11-06T15:11:57.534Z,73.54
2022-11-06T15:15:06.932Z,73.48
2022-11-06T15:17:41.110Z,73.53
2022-11-06T15:20:27.100Z,73.55
2022-11-06T15:23:08.053Z,73.51
2022-11-06T15:25:47.285Z,73.63
2022-11-06T15:28:23.295Z,73.38
2022-11-06T15:31:01.219Z,73.58
2022-11-06T15:33:38.097Z,73.52
2022-11-06T15:36:14.797Z,73.30
2022-11-06T15:38:47.282Z,73.17
2022-11-06T15:41:23.589Z,73.36
2022-11-06T15:43:57.804Z,73.13
2022-11-06T15:46:31.073Z,73.33
2022-11-06T15:49:19.626Z,73.31
2022-11-06T15:51:57.507Z,73.49
2022-11-06T15:54:38.537Z,73.40
2022-11-06T15:57:18.634Z,73.50
2022-11-06T15:59:51.163Z,73.43
2022-11-06T16:02:24.528Z,73.45
2022-11-06T16:04:56.983Z,73.40
2022-11-06T16:07:29.541Z,73.51
2022-11-06T16:10:01.856Z,73.54
2022-11-06T16:12:34.382Z,73.36
2022-11-06T16:15:07.563Z,73.44
2022-11-06T16:17:44.009Z,73.46
2022-11-06T16:20:18.516Z,73.31
2022-11-06T16:22:50.709Z,73.33
2022-11-06T16:25:23.004Z,73.46
2022-11-06T16:27:55.250Z,73.45
2022-11-06T16:30:27.752Z,73.30
2022-11-06T16:33:00.047Z,73.23
2022-11-06T16:35:37.801Z,73.52
2022-11-06T16:38:46.640Z,73.62
2022-11-06T16:41:37.992Z,73.61
2022-11-06T16:44:45.369Z,73.39
2022-11-06T16:47:19.316Z,73.49
2022-11-06T16:49:54.474Z,73.36
2022-11-06T16:52:30.035Z,73.46
2022-11-06T16:55:05.644Z,73.34
2022-11-06T16:57:45.046Z,73.21
2022-11-06T17:00:27.457Z,73.60
2022-11-06T17:03:02.391Z,73.62
2022-11-06T17:05:36.884Z,73.54
2022-11-06T17:08:22.370Z,73.48
2022-11-06T17:10:55.452Z,73.46
2022-11-06T17:13:29.989Z,73.56
2022-11-06T17:16:03.701Z,73.62
2022-11-06T17:18:37.771Z,73.54
2022-11-06T17:21:15.465Z,73.28
2022-11-06T17:23:48.940Z,73.38
2022-11-06T17:26:24.128Z,73.33
2022-11-06T17:28:57.630Z,73.44
2022-11-06T17:31:30.697Z,73.45
2022-11-06T17:34:02.811Z,73.51
2022-11-06T17:36:35.490Z,73.53
2022-11-06T17:39:08.898Z,73.70
2022-11-06T17:41:41.467Z,73.57
2022-11-06T17:44:15.629Z,73.67
2022-11-06T17:46:48.694Z,73.66
2022-11-06T17:49:20.913Z,73.76
2022-11-06T17:52:00.246Z,73.37
2022-11-06T17:54:37.162Z,73.41
2022-11-06T17:57:10.420Z,73.47
2022-11-06T17:59:42.610Z,73.40
2022-11-06T18:02:29.781Z,73.34
2022-11-06T18:05:10.169Z,73.57
2022-11-06T18:07:42.367Z,73.72
2022-11-06T18:10:14.484Z,73.67
2022-11-06T18:12:51.340Z,73.65
2022-11-06T18:15:23.556Z,73.67
2022-11-06T18:17:55.740Z,73.66
2022-11-06T18:20:27.918Z,73.70
2022-11-06T18:23:00.005Z,73.39
2022-11-06T18:25:32.181Z,73.44
2022-11-06T18:28:04.449Z,73.45
2022-11-06T18:30:38.275Z,73.49
2022-11-06T18:33:10.380Z,73.52
2022-11-06T18:35:42.618Z,73.59
2022-11-06T18:38:16.136Z,73.71
2022-11-06T18:40:51.630Z,73.75
2022-11-06T18:43:24.872Z,73.76
2022-11-06T18:45:57.101Z,73.69
2022-11-06T18:48:29.295Z,73.82
2022-11-06T18:51:07.909Z,73.77
2022-11-06T18:53:41.147Z,73.47
2022-11-06T18:56:14.659Z,73.44
2022-11-06T18:58:47.209Z,73.47
2022-11-06T19:01:20.595Z,73.66
2022-11-06T19:03:53.004Z,73.59
2022-11-06T19:06:25.307Z,73.80
2022-11-06T19:08:57.496Z,73.98
2022-11-06T19:11:29.773Z,74.04
2022-11-06T19:14:01.972Z,74.04
2022-11-06T19:16:34.666Z,73.97
2022-11-06T19:19:08.229Z,73.91
2022-11-06T19:21:46.125Z,74.02
2022-11-06T19:24:19.184Z,73.59
2022-11-06T19:26:51.533Z,73.71
2022-11-06T19:29:23.980Z,73.57
2022-11-06T19:32:01.603Z,73.80
2022-11-06T19:34:38.899Z,73.69
2022-11-06T19:37:11.522Z,73.88
2022-11-06T19:39:43.687Z,73.98
2022-11-06T19:42:15.854Z,73.92
2022-11-06T19:44:47.998Z,73.97
2022-11-06T19:47:20.140Z,74.18
2022-11-06T19:49:52.251Z,73.99
2022-11-06T19:52:42.261Z,73.90
2022-11-06T19:55:26.696Z,74.20
2022-11-06T19:58:01.581Z,74.03
2022-11-06T20:00:33.738Z,74.23
2022-11-06T20:03:06.105Z,74.50
2022-11-06T20:05:39.519Z,74.66
2022-11-06T20:08:12.151Z,74.58
2022-11-06T20:10:44.372Z,75.08
2022-11-06T20:13:16.854Z,74.76
2022-11-06T20:15:49.447Z,74.45
2022-11-06T20:18:21.667Z,74.40
2022-11-06T20:20:53.808Z,74.53
2022-11-06T20:23:26.041Z,74.44
2022-11-06T20:25:58.762Z,74.52
2022-11-06T20:28:31.624Z,75.06
2022-11-06T20:31:08.506Z,74.85
2022-11-06T20:33:41.106Z,74.97
2022-11-06T20:36:15.496Z,75.26
2022-11-06T20:38:48.132Z,75.07
2022-11-06T20:41:20.729Z,74.94
2022-11-06T20:43:54.131Z,74.84
2022-11-06T20:46:27.342Z,74.66
2022-11-06T20:48:59.616Z,74.79
2022-11-06T20:51:42.972Z,74.88
2022-11-06T20:54:20.821Z,75.20
2022-11-06T20:56:53.014Z,75.10
2022-11-06T20:59:25.524Z,75.24
2022-11-06T21:01:57.857Z,75.19
2022-11-06T21:04:30.212Z,75.15
2022-11-06T21:07:02.488Z,75.26
2022-11-06T21:09:34.621Z,74.76
2022-11-06T21:12:09.070Z,74.73
2022-11-06T21:14:41.496Z,74.83
2022-11-06T21:17:13.713Z,74.89
2022-11-06T21:19:45.891Z,74.90
2022-11-06T21:22:18.127Z,75.11
2022-11-06T21:24:50.450Z,75.24
2022-11-06T21:27:22.719Z,75.31
2022-11-06T21:29:56.028Z,75.20
2022-11-06T21:32:28.362Z,75.22
2022-11-06T21:35:00.582Z,75.13
2022-11-06T21:37:34.437Z,74.95
2022-11-06T21:40:08.293Z,74.87
2022-11-06T21:42:40.696Z,74.91
2022-11-06T21:45:14.926Z,74.97
2022-11-06T21:47:47.771Z,75.05
2022-11-06T21:50:28.259Z,74.90
2022-11-06T21:53:19.736Z,75.12
2022-11-06T21:56:02.023Z,75.34
2022-11-06T21:58:34.748Z,75.30
2022-11-06T22:01:08.104Z,75.29
2022-11-06T22:03:41.441Z,75.48
2022-11-06T22:06:15.906Z,75.41
2022-11-06T22:08:49.493Z,75.29
2022-11-06T22:11:23.749Z,75.26
2022-11-06T22:13:57.304Z,75.25
2022-11-06T22:16:31.573Z,75.42
2022-11-06T22:19:04.679Z,75.22
2022-11-06T22:21:39.169Z,75.34
2022-11-06T22:24:14.249Z,75.53
2022-11-06T22:26:46.460Z,75.43
2022-11-06T22:29:18.733Z,75.47
2022-11-06T22:31:52.379Z,75.47
2022-11-06T22:34:24.616Z,75.48
2022-11-06T22:36:56.874Z,75.17
2022-11-06T22:39:29.125Z,75.41
2022-11-06T22:42:01.446Z,75.30
2022-11-06T22:44:36.550Z,75.12
2022-11-06T22:47:09.287Z,75.53
2022-11-06T22:49:41.453Z,75.46
2022-11-06T22:52:13.599Z,75.99
2022-11-06T22:54:45.841Z,76.36
2022-11-06T22:57:18.096Z,76.29
2022-11-06T22:59:50.153Z,75.98
2022-11-06T23:02:22.500Z,76.04
2022-11-06T23:04:54.821Z,75.96
2022-11-06T23:07:27.041Z,75.98
2022-11-06T23:09:59.261Z,76.02
2022-11-06T23:12:31.478Z,76.00
2022-11-06T23:15:03.905Z,75.91
2022-11-06T23:17:38.498Z,76.39
2022-11-06T23:20:13.026Z,76.24
2022-11-06T23:22:45.348Z,76.90
2022-11-06T23:25:20.102Z,76.58
2022-11-06T23:27:52.372Z,76.79
2022-11-06T23:30:24.646Z,76.65
2022-11-06T23:32:57.653Z,76.60
2022-11-06T23:35:32.676Z,76.51
2022-11-06T23:38:05.271Z,76.47
2022-11-06T23:40:37.489Z,76.32
2022-11-06T23:43:09.719Z,76.48
2022-11-06T23:45:51.650Z,76.77
2022-11-06T23:48:24.265Z,76.51
2022-11-06T23:50:56.582Z,77.50
2022-11-06T23:53:28.784Z,77.42
2022-11-06T23:56:05.629Z,77.58
2022-11-06T23:58:38.876Z,77.25
